Weather History for Macomb, IL

Change the Weather History Date:

Thursday, January 19, 2012

  Actual Average (KBRL) Record (KBRL)
Temperature  
Mean Temperature 20 °F 26 °F  
Max Temperature 32 °F 34 °F 64 °F (1952)
Min Temperature 9 °F 17 °F -21 °F (1985)
Degree Days  
Heating Degree Days 44 39  
Month to date heating degree days 741  
Since 1 July heating degree days 2927  
Cooling Degree Days 0 0  
Month to date cooling degree days 0  
Year to date cooling degree days 0  
Moisture  
Dew Point 10 °F    
Average Humidity 67    
Maximum Humidity 87    
Minimum Humidity 53    
Precipitation  
Precipitation 0.00 in 0.03 in 0.29 in (1963)
Month to date precipitation 0.78  
Year to date precipitation 0.78  
Sea Level Pressure  
Sea Level Pressure 30.06 in    
Wind  
Wind Speed 13 mph (NNW)    
Max Wind Speed 23 mph    
Max Gust Speed 24 mph    
Visibility 10 miles    
Events Snow    
T = Trace of Precipitation, MM = Missing Value Source: NWS Daily Summary

Daily Weather History Graph

Daily Weather History Graph

Search for Another Location

Airport:

Trip Planner

Search our weather history database for the weather conditions in past years. The results will help you decide how hot, cold, wet, or windy it might be!

Date:

Astronomy

Jan. 19, 2012 Rise Set
Actual Time 7:22 AM CST 5:04 PM CST
Civil Twilight 6:52 AM CST 5:34 PM CST
Nautical Twilight 6:19 AM CST 6:07 PM CST
Astronomical Twilight 5:46 AM CST 6:40 PM CST
Moon 3:59 AM CST (1/19) 1:36 PM CST (1/19)
Length of Visible Light 10h 41m
Length of Day
9h 42m
Waning Crescent, 15% of the Moon is Illuminated
Jan 19
Waning Crescent
Jan 23
New
Jan 30
First Quarter
Feb 7
Full
Feb 14
Last Quarter

Hourly Weather History & Observations

Time (CST) Temp. Windchill Dew Point Humidity Pressure Visibility Wind Dir Wind Speed Gust Speed Precip Events Conditions
12:15 AM 29.7 °F 19.6 °F 18.3 °F 63% 29.86 in 10.0 mi SSW 12.7 mph - N/A   Clear
12:35 AM 29.7 °F 20.7 °F 18.9 °F 64% 29.86 in 10.0 mi SW 10.4 mph - N/A   Clear
12:55 AM 30.2 °F 20.8 °F 19.2 °F 64% 29.86 in 10.0 mi SW 11.5 mph - N/A   Clear
1:15 AM 30.2 °F 21.3 °F 20.1 °F 66% 29.85 in 10.0 mi SW 10.4 mph - N/A   Scattered Clouds
1:35 AM 30.9 °F 22.8 °F 20.7 °F 66% 29.87 in 10.0 mi SW 9.2 mph - N/A   Overcast
1:55 AM 31.8 °F 23.9 °F 21.2 °F 65% 29.86 in 10.0 mi SW 9.2 mph - N/A   Overcast
2:15 AM 32.0 °F 23.6 °F 21.6 °F 65% 29.86 in 10.0 mi WSW 10.4 mph - N/A   Overcast
2:35 AM 32.0 °F 24.2 °F 21.9 °F 66% 29.87 in 10.0 mi West 9.2 mph - N/A   Overcast
2:55 AM 32.0 °F 24.2 °F 22.1 °F 67% 29.88 in 10.0 mi West 9.2 mph - N/A   Overcast
3:15 AM 32.0 °F 23.0 °F 22.6 °F 68% 29.88 in 10.0 mi West 11.5 mph - N/A   Overcast
3:35 AM 32.0 °F 22.1 °F 23.0 °F 69% 29.88 in 10.0 mi WNW 13.8 mph - N/A   Mostly Cloudy
3:55 AM 31.5 °F 22.3 °F 22.1 °F 68% 29.89 in 10.0 mi NW 11.5 mph - N/A   Mostly Cloudy
4:15 AM 30.9 °F 21.2 °F 21.9 °F 69% 29.90 in 10.0 mi NW 12.7 mph - N/A   Overcast
4:35 AM 30.2 °F 18.5 °F 23.0 °F 75% 29.92 in 10.0 mi NW 17.3 mph 23.0 mph N/A   Overcast
4:55 AM 28.0 °F 17.5 °F 22.1 °F 78% 29.94 in 10.0 mi NW 12.7 mph - N/A   Overcast
5:15 AM 26.6 °F 14.3 °F 21.9 °F 82% 29.94 in 7.0 mi NNW 16.1 mph 21.9 mph N/A   Overcast
5:35 AM 25.2 °F 13.3 °F 21.7 °F 87% 29.94 in 7.0 mi NNW 13.8 mph - N/A   Overcast
5:55 AM 22.8 °F 8.5 °F 18.9 °F 85% 29.96 in 10.0 mi NNW 18.4 mph - N/A   Mostly Cloudy
6:15 AM 21.2 °F 7.3 °F 17.6 °F 86% 29.98 in 7.0 mi North 16.1 mph - N/A   Overcast
6:35 AM 19.8 °F 5.0 °F 15.4 °F 83% 30.00 in 10.0 mi North 17.3 mph - N/A   Overcast
6:55 AM 18.5 °F 4.3 °F 13.5 °F 81% 30.03 in 10.0 mi North 15.0 mph 24.2 mph N/A   Overcast
7:15 AM 18.3 °F 5.9 °F 13.8 °F 83% 30.03 in 7.0 mi NNW 11.5 mph - N/A Snow Light Snow
7:35 AM 17.8 °F 1.5 °F 13.3 °F 83% 30.05 in 5.0 mi NNW 19.6 mph - N/A   Haze
7:55 AM 16.2 °F 0.8 °F 9.9 °F 76% 30.08 in 10.0 mi North 16.1 mph 21.9 mph N/A   Overcast
8:15 AM 16.5 °F 1.8 °F 10.0 °F 76% 30.08 in 10.0 mi North 15.0 mph 19.6 mph N/A   Overcast
8:35 AM 15.8 °F -0.6 °F 8.8 °F 74% 30.10 in 10.0 mi North 18.4 mph - N/A   Overcast
8:55 AM 15.6 °F -0.9 °F 9.5 °F 77% 30.10 in 10.0 mi North 18.4 mph - N/A   Overcast
9:15 AM 15.1 °F -3.3 °F 5.9 °F 67% 30.10 in 10.0 mi North 23.0 mph - N/A   Overcast
9:35 AM 14.9 °F -1.8 °F 6.8 °F 70% 30.10 in 10.0 mi North 18.4 mph - N/A   Overcast
9:55 AM 15.6 °F 1.2 °F 7.9 °F 72% 30.11 in 10.0 mi North 13.8 mph - N/A   Overcast
10:15 AM 14.9 °F 0.3 °F 6.4 °F 69% 30.11 in 10.0 mi North 13.8 mph - N/A   Mostly Cloudy
10:35 AM 15.8 °F -0.2 °F 3.2 °F 58% 30.11 in 10.0 mi North 17.3 mph - N/A   Scattered Clouds
10:55 AM 14.9 °F 0.3 °F 2.5 °F 58% 30.10 in 10.0 mi North 13.8 mph - N/A   Mostly Cloudy
11:15 AM 14.9 °F -0.8 °F 1.8 °F 56% 30.10 in 10.0 mi North 16.1 mph - N/A   Mostly Cloudy
11:35 AM 14.7 °F -0.5 °F 2.3 °F 58% 30.12 in 10.0 mi North 15.0 mph - N/A   Scattered Clouds
11:55 AM 14.7 °F -2.0 °F 5.7 °F 68% 30.12 in 10.0 mi NNW 18.4 mph 21.9 mph N/A   Scattered Clouds
12:15 PM 14.0 °F -2.0 °F 4.8 °F 67% 30.10 in 10.0 mi North 16.1 mph - N/A   Scattered Clouds
12:35 PM 13.8 °F 1.0 °F 5.5 °F 70% 30.10 in 10.0 mi North 10.4 mph - N/A   Scattered Clouds
12:55 PM 14.2 °F -1.2 °F 6.3 °F 71% 30.11 in 7.0 mi North 15.0 mph - N/A   Overcast
1:15 PM 14.9 °F 0.3 °F 2.5 °F 58% 30.11 in 10.0 mi North 13.8 mph 19.6 mph N/A   Scattered Clouds
1:35 PM 14.7 °F 0.7 °F 3.9 °F 62% 30.12 in 10.0 mi North 12.7 mph 20.7 mph N/A   Scattered Clouds
1:55 PM 15.4 °F 3.0 °F 3.0 °F 58% 30.12 in 10.0 mi NNW 10.4 mph - N/A   Mostly Cloudy
2:15 PM 15.1 °F 2.5 °F 1.8 °F 56% 30.13 in 10.0 mi North 10.4 mph 17.3 mph N/A   Overcast
2:35 PM 16.0 °F 2.3 °F 3.2 °F 57% 30.13 in 10.0 mi North 12.7 mph 17.3 mph N/A   Scattered Clouds
3:15 PM 14.5 °F 1.1 °F 1.6 °F 57% 30.15 in 10.0 mi North 11.5 mph - N/A   Clear
3:35 PM 14.0 °F -0.8 °F 1.6 °F 58% 30.16 in 10.0 mi North 13.8 mph - N/A   Clear
3:55 PM 15.8 °F 2.1 °F 1.4 °F 53% 30.16 in 10.0 mi North 12.7 mph - N/A   Clear
4:15 PM 14.5 °F 1.9 °F 1.0 °F 55% 30.16 in 10.0 mi North 10.4 mph - N/A   Clear
4:35 PM 14.4 °F 1.6 °F 1.0 °F 56% 30.17 in 10.0 mi North 10.4 mph - N/A   Clear
4:55 PM 14.0 °F 2.9 °F 1.0 °F 56% 30.17 in 10.0 mi North 8.1 mph - N/A   Clear
5:15 PM 13.3 °F 1.1 °F 1.6 °F 60% 30.17 in 10.0 mi North 9.2 mph - N/A   Clear
5:35 PM 12.7 °F 1.4 °F 1.4 °F 61% 30.17 in 10.0 mi North 8.1 mph - N/A   Clear
5:55 PM 12.2 °F 0.7 °F 3.2 °F 67% 30.18 in 10.0 mi North 8.1 mph - N/A   Clear
6:15 PM 12.0 °F -0.4 °F 1.0 °F 61% 30.19 in 10.0 mi North 9.2 mph - N/A   Clear
6:35 PM 11.3 °F -1.3 °F 1.2 °F 64% 30.18 in 10.0 mi North 9.2 mph - N/A   Clear
6:55 PM 10.9 °F -0.8 °F 0.1 °F 62% 30.19 in 10.0 mi North 8.1 mph - N/A   Clear
7:15 PM 10.4 °F -2.4 °F -0.0 °F 63% 30.19 in 10.0 mi North 9.2 mph - N/A   Clear
7:35 PM 10.2 °F -2.7 °F 0.1 °F 64% 30.19 in 10.0 mi North 9.2 mph - N/A   Clear
7:55 PM 9.9 °F -2.2 °F 0.3 °F 65% 30.20 in 10.0 mi North 8.1 mph - N/A   Clear
8:15 PM 9.5 °F -3.5 °F 0.5 °F 67% 30.21 in 10.0 mi North 9.2 mph - N/A   Clear
8:35 PM 9.5 °F -1.5 °F 0.9 °F 68% 30.20 in 10.0 mi North 6.9 mph - N/A   Clear
9:15 PM 8.6 °F -1.3 °F -0.2 °F 67% 30.21 in 10.0 mi North 5.8 mph - N/A   Clear
9:35 PM 8.6 °F -2.6 °F -0.6 °F 66% 30.20 in 10.0 mi NNE 6.9 mph - N/A   Clear
9:55 PM 8.2 °F -1.8 °F -0.6 °F 67% 30.20 in 10.0 mi NNE 5.8 mph - N/A   Clear
10:15 PM 8.1 °F 1.4 °F -0.0 °F 70% 30.20 in 10.0 mi NNE 3.5 mph - N/A   Clear
10:35 PM 7.7 °F -0.9 °F 0.3 °F 72% 30.21 in 10.0 mi NNE 4.6 mph - N/A   Clear
10:55 PM 8.1 °F -2.0 °F 0.7 °F 72% 30.20 in 10.0 mi NNE 5.8 mph - N/A   Clear
11:15 PM 8.1 °F -3.2 °F 1.0 °F 73% 30.19 in 10.0 mi NNE 6.9 mph - N/A   Clear
11:35 PM 8.2 °F -5.1 °F 0.1 °F 70% 30.20 in 10.0 mi NE 9.2 mph - N/A   Clear
11:55 PM 8.1 °F -3.2 °F -0.0 °F 70% 30.20 in 10.0 mi NE 6.9 mph - N/A   Clear